Vremea mâine în Jibou - Romania

Vrei sa afli care e starea vremii acum in Salaj - Romania? Dorim sa iti furnizam starea vremii pentru Salaj - Romania. Starea vremii Salaj - Romania pentru astazi.

Vremea mâine în Jibou

Temperatura minimă:
12.1 °C

Temperatura maximă:
20.2 °C

Mâine va fi: Patchy rain nearby
Precipitații: 89 %
Umiditate: 80%
Viteza maximă vânt mâine:
7.2 km/h

Evoluția vremii in Jibou pe ore mâine

Ora: 08:00
Temperatura: °C
Sansa de precipitatii: %
Ora Descriere Temp Se simte Precipitatii Umiditate Vant
00:00Ceata13°13°60%96%ESE 1.8 KM/H
01:00Ceata12.6°12.6°84%96%S 2.2 KM/H
02:00Ceata12.6°12.6°75%95%S 2.9 KM/H
03:00Ceata12.4°12.4°81%95%SSW 2.2 KM/H
04:00Burniță ușoară12.6°12.4°100%95%WSW 6.1 KM/H
05:00Ploi usoare12.6°12.3°100%95%W 7.2 KM/H
06:00Ceata12.1°12.1°61%96%W 5 KM/H
07:00Ceata12.5°12.5°68%95%W 2.5 KM/H
08:00Patchy rain nearby13.4°13.4°82%91%WSW 1.1 KM/H
09:00Patchy rain nearby13.6°13.6°100%90%WNW 1.8 KM/H
10:00Patchy rain nearby14.3°14.3°84%87%N 2.9 KM/H
11:00Patchy rain nearby16.2°16.2°88%78%N 2.9 KM/H
12:00Patchy rain nearby17.8°17.8°73%70%NW 2.2 KM/H
13:00Patchy rain nearby18.9°18.9°65%65%NW 2.2 KM/H
14:00Patchy rain nearby19.8°19.8°100%61%NW 3.6 KM/H
15:00Ploi usoare20.2°20.2°100%58%NW 4.7 KM/H
16:00Patchy rain nearby20°20°100%58%NW 6.5 KM/H
17:00Ploi usoare20°20°100%58%NNW 7.2 KM/H
18:00Patchy rain nearby19.5°19.5°100%60%NNW 6.5 KM/H
19:00Patchy rain nearby18.9°18.9°70%70%NNE 4 KM/H
20:00Patchy rain nearby16.6°16.6°61%74%NE 4 KM/H
21:0015.1°15.1°0%78%ENE 4.3 KM/H
22:0014.7°14.7°0%79%SE 2.5 KM/H
23:00Innorat14°14°0%80%SSE 2.5 KM/H




tutorials